Terminal Aerodrome Forecast
Issued by NWS Cleveland, OH

Home | Current Version | Previous Version | Graphics & Text | Print | Product List | Glossary On
Versions: 1 2 3 4 5 6 7 8 9 10 11 12 13 14 15 16 17 18 19 20 21 22 23 24 25 26 27 28
000
FTUS41 KCLE 021100
TAFCLE
TAF
KCLE 021129Z 0212/0318 18005KT P6SM SCT090 OVC200
     FM021400 28006KT P6SM FEW060 OVC200
     FM021700 33008KT P6SM SCT060 BKN200
     FM022300 26005KT P6SM BKN250
     FM030200 VRB03KT P6SM SKC=

USA.gov is the U.S. government's official web portal to all federal, state and local government web resources and services.